Time;durP1;ratioP1;P1;durP2;ratioP2;P2;SDS_P1;SDS_P2;PMS_P1;PMS_P2;Temp;Humidity;BMP_temperature;BMP_pressure;BME280_temperature;BME280_humidity;BME280_pressure;Samples;Min_cycle;Max_cycle;Signal;HPM_P1;HPM_P2
2023/04/07 00:01:09;;;;;;;4.77;3.57;;;;;;;6.77;100.00;98679.91;4988863;28;20230;-60
2023/04/07 00:03:37;;;;;;;6.43;4.03;;;;;;;6.77;100.00;98679.91;4984859;28;20247;-59
2023/04/07 00:06:05;;;;;;;6.37;4.10;;;;;;;6.79;100.00;98678.84;4992884;28;20597;-59
2023/04/07 00:08:32;;;;;;;5.47;3.93;;;;;;;6.87;99.76;98675.63;4982352;28;20226;-59
2023/04/07 00:10:58;;;;;;;5.70;3.80;;;;;;;6.88;99.55;98679.06;4995208;28;20236;-59
2023/04/07 00:13:25;;;;;;;6.40;3.93;;;;;;;6.81;100.00;98678.72;4999427;28;20581;-60
2023/04/07 00:15:52;;;;;;;4.13;3.43;;;;;;;6.79;100.00;98671.06;4983546;28;20228;-60
2023/04/07 00:18:19;;;;;;;4.60;3.57;;;;;;;6.77;100.00;98669.53;4989381;28;20230;-60
2023/04/07 00:20:45;;;;;;;5.10;3.70;;;;;;;6.73;100.00;98662.94;4999401;28;20245;-60
2023/04/07 00:23:13;;;;;;;6.33;3.73;;;;;;;6.73;100.00;98657.75;5002416;28;20735;-60
2023/04/07 00:25:40;;;;;;;3.93;3.37;;;;;;;6.70;100.00;98652.81;4986135;28;20237;-60
2023/04/07 00:28:07;;;;;;;5.33;3.50;;;;;;;6.65;100.00;98646.25;5003602;28;20264;-60
2023/04/07 00:30:33;;;;;;;5.70;3.07;;;;;;;6.69;100.00;98646.00;4964764;28;20703;-60
2023/04/07 00:33:00;;;;;;;5.70;3.63;;;;;;;6.70;100.00;98634.66;5005328;28;20234;-59
2023/04/07 00:35:27;;;;;;;5.23;3.37;;;;;;;6.68;100.00;98629.63;4995812;28;20224;-60
2023/04/07 00:37:53;;;;;;;5.10;2.53;;;;;;;6.63;100.00;98622.19;4986601;28;20223;-60
2023/04/07 00:40:21;;;;;;;4.40;2.77;;;;;;;6.64;100.00;98623.84;4991282;28;21857;-59
2023/04/07 00:42:48;;;;;;;6.40;3.63;;;;;;;6.65;100.00;98620.31;4981163;28;20607;-60
2023/04/07 00:45:14;;;;;;;3.87;3.03;;;;;;;6.70;100.00;98621.69;4996654;28;20232;-60
2023/04/07 00:47:41;;;;;;;4.73;2.97;;;;;;;6.64;100.00;98615.25;5009075;28;20263;-62
2023/04/07 00:50:09;;;;;;;4.80;2.97;;;;;;;6.64;100.00;98613.47;5000163;28;20241;-60
2023/04/07 00:52:36;;;;;;;4.80;3.07;;;;;;;6.65;100.00;98609.13;4990060;28;20247;-60
2023/04/07 00:55:02;;;;;;;4.33;2.90;;;;;;;6.65;100.00;98607.34;4994805;28;20230;-60
2023/04/07 00:57:31;;;;;;;5.33;2.93;;;;;;;6.68;100.00;98610.63;4982365;28;20296;-60
2023/04/07 00:59:58;;;;;;;4.73;2.90;;;;;;;6.62;100.00;98602.41;4974289;28;20272;-59
2023/04/07 01:02:32;;;;;;;4.00;3.03;;;;;;;6.63;100.00;98600.63;4965684;28;20307;-59
2023/04/07 01:05:08;;;;;;;4.83;3.23;;;;;;;6.64;100.00;98595.31;4999220;28;20286;-60
2023/04/07 01:07:40;;;;;;;5.57;3.43;;;;;;;6.63;100.00;98591.06;4986108;28;20706;-59
2023/04/07 01:10:16;;;;;;;4.90;3.67;;;;;;;6.64;100.00;98587.53;4981615;28;20654;-59
2023/04/07 01:13:00;;;;;;;5.23;3.37;;;;;;;6.72;100.00;98575.69;4993357;28;20239;-59
2023/04/07 01:15:30;;;;;;;4.20;3.70;;;;;;;6.72;100.00;98571.34;4995749;28;20405;-59
2023/04/07 01:18:06;;;;;;;4.77;3.70;;;;;;;6.70;100.00;98570.66;4994536;28;20235;-61
2023/04/07 01:20:35;;;;;;;6.13;3.53;;;;;;;6.75;99.33;98575.44;4996791;28;20228;-60
2023/04/07 01:23:09;;;;;;;5.37;3.47;;;;;;;6.74;98.82;98574.63;4992371;28;20275;-61
2023/04/07 01:25:53;;;;;;;8.03;3.73;;;;;;;6.73;98.52;98567.81;4989174;28;20702;-60
2023/04/07 01:28:41;;;;;;;7.33;3.70;;;;;;;6.69;98.49;98557.78;4972916;28;20251;-61
2023/04/07 01:31:12;;;;;;;5.07;3.37;;;;;;;6.65;99.60;98568.44;4987539;28;20327;-61
2023/04/07 01:33:43;;;;;;;5.20;3.27;;;;;;;6.63;99.97;98559.94;4988380;28;20246;-61
2023/04/07 01:36:11;;;;;;;5.20;3.57;;;;;;;6.63;99.35;98569.50;4977813;28;20221;-62
2023/04/07 01:38:39;;;;;;;4.70;3.33;;;;;;;6.72;99.51;98566.16;4975222;28;20233;-61
2023/04/07 01:41:09;;;;;;;6.90;3.70;;;;;;;6.70;99.73;98562.03;4980766;28;20235;-61
2023/04/07 01:43:37;;;;;;;4.93;3.43;;;;;;;6.76;99.90;98559.78;4991687;28;20262;-61
2023/04/07 01:46:05;;;;;;;5.60;3.57;;;;;;;6.69;100.00;98556.03;4992868;28;20237;-60
2023/04/07 01:48:34;;;;;;;5.03;3.40;;;;;;;6.69;100.00;98557.78;4975378;28;20225;-61
2023/04/07 01:51:01;;;;;;;5.73;3.43;;;;;;;6.64;100.00;98556.41;4980350;28;20244;-60
2023/04/07 01:53:28;;;;;;;6.40;3.00;;;;;;;6.63;100.00;98554.75;4981531;28;20397;-61
2023/04/07 01:55:55;;;;;;;5.87;3.30;;;;;;;6.64;100.00;98560.78;4976371;28;20225;-62
2023/04/07 01:58:22;;;;;;;6.70;3.13;;;;;;;6.65;100.00;98560.66;4977150;28;20321;-61
2023/04/07 02:00:50;;;;;;;6.77;3.87;;;;;;;6.67;100.00;98557.09;4979009;28;20598;-60
2023/04/07 02:03:27;;;;;;;6.17;3.50;;;;;;;6.73;100.00;98552.25;4997436;28;20291;-60
2023/04/07 02:06:01;;;;;;;7.20;3.50;;;;;;;6.74;99.82;98558.22;4997656;28;20217;-59
2023/04/07 02:08:30;;;;;;;5.17;3.60;;;;;;;6.77;99.82;98560.56;4999077;28;20307;-60
2023/04/07 02:10:58;;;;;;;6.50;3.57;;;;;;;6.76;100.00;98554.56;4989090;28;20233;-60
2023/04/07 02:13:29;;;;;;;7.47;3.67;;;;;;;6.78;100.00;98550.09;4993712;28;20297;-62
2023/04/07 02:15:58;;;;;;;5.57;3.50;;;;;;;6.78;100.00;98552.69;4990712;28;20223;-60
2023/04/07 02:18:26;;;;;;;6.70;3.60;;;;;;;6.76;100.00;98543.38;4998152;28;20302;-62
2023/04/07 02:20:54;;;;;;;7.20;3.50;;;;;;;6.77;100.00;98545.84;4983760;28;20229;-61
2023/04/07 02:23:22;;;;;;;5.50;3.30;;;;;;;6.78;100.00;98547.50;4977416;28;20219;-59
2023/04/07 02:25:48;;;;;;;5.03;3.37;;;;;;;6.78;100.00;98547.50;4981616;28;20226;-59
2023/04/07 02:28:15;;;;;;;5.90;3.20;;;;;;;6.77;100.00;98545.00;4980452;28;20234;-60
2023/04/07 02:30:44;;;;;;;8.37;3.40;;;;;;;6.76;100.00;98540.78;5007020;28;20226;-60
2023/04/07 02:33:11;;;;;;;7.87;3.50;;;;;;;6.77;100.00;98542.41;5002981;28;20687;-59
2023/04/07 02:35:37;;;;;;;7.67;3.73;;;;;;;6.78;100.00;98541.47;4973448;28;20241;-60
2023/04/07 02:38:04;;;;;;;7.37;3.63;;;;;;;6.82;100.00;98532.47;4994847;28;20245;-60
2023/04/07 02:40:37;;;;;;;6.37;3.50;;;;;;;6.82;100.00;98535.06;4976117;28;20792;-59
2023/04/07 02:43:04;;;;;;;5.40;3.37;;;;;;;6.86;100.00;98538.25;5002895;28;20731;-60
2023/04/07 02:45:30;;;;;;;6.27;3.33;;;;;;;6.86;100.00;98533.88;4991461;28;20902;-60
2023/04/07 02:47:57;;;;;;;5.43;3.30;;;;;;;6.89;100.00;98540.59;4992442;28;20721;-60
2023/04/07 02:50:24;;;;;;;5.20;3.30;;;;;;;6.85;100.00;98528.81;4999518;28;20217;-60
2023/04/07 02:52:51;;;;;;;5.30;3.20;;;;;;;6.83;100.00;98522.94;4994369;28;20310;-61
2023/04/07 02:55:18;;;;;;;5.97;3.67;;;;;;;6.81;100.00;98525.66;5010170;28;20226;-60
2023/04/07 02:57:46;;;;;;;6.37;3.70;;;;;;;6.78;100.00;98518.13;4979008;28;20747;-59
2023/04/07 03:04:03;;;;;;;5.73;3.83;;;;;;;6.81;98.02;98515.25;5791759;22;20237;-61
2023/04/07 03:06:30;;;;;;;5.73;3.60;;;;;;;6.81;99.18;98517.84;4973673;28;20631;-59
2023/04/07 03:09:06;;;;;;;6.17;3.60;;;;;;;6.81;97.24;98510.06;4983021;28;20215;-61
2023/04/07 03:11:33;;;;;;;5.77;3.50;;;;;;;6.83;96.91;98500.38;4983905;28;20244;-61
2023/04/07 03:14:02;;;;;;;6.30;3.60;;;;;;;6.82;96.12;98503.13;4976684;28;20597;-61
2023/04/07 03:16:31;;;;;;;8.27;3.27;;;;;;;6.82;93.34;98496.16;4956430;28;20242;-61
2023/04/07 03:19:06;;;;;;;5.07;3.57;;;;;;;6.85;94.49;98485.50;4985430;28;20225;-61
2023/04/07 03:21:38;;;;;;;5.17;3.57;;;;;;;6.84;93.71;98483.88;4970976;28;20238;-61
2023/04/07 03:24:05;;;;;;;4.93;3.23;;;;;;;6.81;93.28;98491.91;4961295;28;20768;-61
2023/04/07 03:26:32;;;;;;;4.97;3.00;;;;;;;6.80;93.67;98498.06;4965173;28;20596;-61
2023/04/07 03:29:03;;;;;;;4.17;3.13;;;;;;;6.75;94.61;98500.22;4963046;28;20230;-61
2023/04/07 03:31:30;;;;;;;4.83;3.13;;;;;;;6.70;95.63;98507.56;5199122;22;20219;-62
2023/04/07 03:33:57;;;;;;;3.47;2.43;;;;;;;6.63;96.96;98502.06;4994445;28;20262;-62
2023/04/07 03:36:26;;;;;;;7.10;4.20;;;;;;;6.59;98.05;98509.28;4977606;28;20606;-62
2023/04/07 03:38:55;;;;;;;8.23;6.23;;;;;;;6.60;98.12;98504.94;4987340;28;20241;-59
2023/04/07 03:41:22;;;;;;;16.33;9.93;;;;;;;6.64;99.12;98508.91;4972861;28;20226;-59
2023/04/07 03:43:49;;;;;;;16.50;12.00;;;;;;;6.65;99.86;98505.38;4985170;28;20239;-60
2023/04/07 03:46:20;;;;;;;14.53;9.60;;;;;;;6.67;100.00;98502.63;4967725;28;20280;-60
2023/04/07 03:48:47;;;;;;;21.43;14.00;;;;;;;6.69;100.00;98505.91;4967647;28;20280;-60
2023/04/07 03:51:14;;;;;;;12.83;10.80;;;;;;;6.70;100.00;98504.97;4982231;28;20255;-59
2023/04/07 03:53:40;;;;;;;10.70;6.50;;;;;;;6.71;100.00;98504.03;4956826;28;20386;-61
2023/04/07 03:56:18;;;;;;;5.43;4.10;;;;;;;6.70;100.00;98490.25;4964108;28;20246;-60
2023/04/07 03:58:49;;;;;;;4.27;3.87;;;;;;;6.74;100.00;98501.16;4984021;28;20286;-61
2023/04/07 04:01:25;;;;;;;5.97;4.50;;;;;;;6.79;98.67;98501.59;4980294;28;20223;-60
2023/04/07 04:03:51;;;;;;;5.67;4.57;;;;;;;6.84;98.10;98498.63;4983890;28;20313;-61
2023/04/07 04:06:23;;;;;;;6.53;3.43;;;;;;;6.86;97.53;98494.94;4981748;28;21271;-61
2023/04/07 04:08:51;;;;;;;6.17;3.90;;;;;;;6.89;96.39;98488.69;4975114;28;20251;-60
2023/04/07 04:11:18;;;;;;;6.53;3.80;;;;;;;6.93;96.27;98487.44;4982977;28;20313;-61
2023/04/07 04:13:55;;;;;;;5.53;3.43;;;;;;;6.97;95.11;98490.63;4982299;28;20249;-61
2023/04/07 04:16:26;;;;;;;5.40;3.30;;;;;;;6.95;96.58;98493.31;4968903;28;20223;-63
2023/04/07 04:18:56;;;;;;;6.37;3.90;;;;;;;6.96;97.32;98487.19;4984091;28;20725;-60
2023/04/07 04:21:26;;;;;;;8.20;4.70;;;;;;;6.92;98.73;98494.41;4981028;28;20229;-61
2023/04/07 04:23:52;;;;;;;5.60;3.40;;;;;;;6.91;97.89;98489.34;4983914;28;20237;-60
2023/04/07 04:26:24;;;;;;;5.20;3.80;;;;;;;6.91;97.75;98490.19;4998290;28;20230;-61
2023/04/07 04:28:52;;;;;;;6.87;3.60;;;;;;;6.93;97.54;98487.44;4983567;28;20731;-61
2023/04/07 04:31:20;;;;;;;6.33;3.50;;;;;;;6.97;96.35;98491.41;4979788;28;20323;-61
2023/04/07 04:33:48;;;;;;;4.13;3.20;;;;;;;6.98;95.46;98487.88;4984320;28;20648;-61
2023/04/07 04:36:15;;;;;;;6.00;3.40;;;;;;;6.99;96.10;98484.31;4985248;28;20224;-60
2023/04/07 04:38:42;;;;;;;5.80;3.27;;;;;;;6.98;96.37;98490.47;4981893;28;20237;-61
2023/04/07 04:41:15;;;;;;;4.63;3.00;;;;;;;6.97;97.44;98490.63;4984139;28;20765;-61
2023/04/07 04:43:43;;;;;;;2.87;2.50;;;;;;;6.94;98.75;98500.31;4981666;28;20314;-61
2023/04/07 04:46:12;;;;;;;5.50;3.77;;;;;;;7.01;96.14;98494.59;4983655;28;20218;-60
2023/04/07 04:48:42;;;;;;;5.57;3.70;;;;;;;7.01;94.78;98495.41;4981748;28;20310;-61
2023/04/07 04:51:10;;;;;;;4.87;3.30;;;;;;;7.01;95.22;98489.41;4983211;28;20226;-60
2023/04/07 04:53:38;;;;;;;6.73;3.17;;;;;;;6.96;96.69;98487.19;4980965;28;20238;-61
2023/04/07 04:56:07;;;;;;;3.90;3.30;;;;;;;6.87;97.91;98491.41;4999206;28;20223;-61
2023/04/07 04:58:46;;;;;;;6.27;2.83;;;;;;;6.93;98.25;98497.81;4981331;28;20258;-61
2023/04/07 05:01:20;;;;;;;6.93;2.90;;;;;;;6.97;97.36;98493.22;4997451;28;20321;-61
2023/04/07 05:03:53;;;;;;;6.93;3.90;;;;;;;6.90;96.68;98493.72;4983074;28;20230;-61
2023/04/07 05:06:28;;;;;;;4.00;3.20;;;;;;;6.81;97.88;98489.31;4981022;28;20225;-61
2023/04/07 05:08:58;;;;;;;5.83;3.63;;;;;;;6.79;98.50;98496.41;4983988;28;20329;-61
2023/04/07 05:11:30;;;;;;;6.33;3.00;;;;;;;6.74;99.01;98501.16;4981256;28;20784;-60
2023/04/07 05:13:57;;;;;;;5.50;3.40;;;;;;;6.71;100.00;98494.47;4980285;28;20238;-61
2023/04/07 05:16:24;;;;;;;6.83;4.60;;;;;;;6.69;100.00;98496.38;4979836;28;20601;-60
2023/04/07 05:18:51;;;;;;;6.90;3.70;;;;;;;6.71;100.00;98494.47;4983569;28;20293;-60
2023/04/07 05:21:20;;;;;;;4.23;3.40;;;;;;;6.82;100.00;98493.56;4981807;28;20223;-60
2023/04/07 05:23:48;;;;;;;5.57;4.00;;;;;;;6.76;99.30;98491.47;4982149;28;20233;-60
2023/04/07 05:26:15;;;;;;;8.17;4.20;;;;;;;6.78;99.58;98486.97;4983755;28;20632;-60
2023/04/07 05:28:42;;;;;;;5.37;3.90;;;;;;;6.74;100.00;98473.47;4980931;28;20235;-60
2023/04/07 05:31:15;;;;;;;4.13;3.43;;;;;;;6.74;100.00;98493.38;4979617;28;20684;-60
2023/04/07 05:33:42;;;;;;;29.93;16.17;;;;;;;6.76;100.00;98500.09;4978901;28;20238;-60
2023/04/07 05:36:09;;;;;;;8.97;5.53;;;;;;;6.81;100.00;98499.69;4982062;28;20223;-61
2023/04/07 05:38:36;;;;;;;9.03;5.17;;;;;;;6.93;100.00;98501.25;4966241;28;20236;-60
2023/04/07 05:41:11;;;;;;;14.87;9.27;;;;;;;7.04;100.00;98502.13;4963284;28;20261;-60
2023/04/07 05:43:38;;;;;;;14.83;9.23;;;;;;;7.26;100.00;98502.88;4962934;28;20292;-61
2023/04/07 05:46:06;;;;;;;9.43;5.33;;;;;;;7.41;100.00;98514.53;4982996;28;20626;-61
2023/04/07 05:48:37;;;;;;;8.90;5.17;;;;;;;7.64;98.82;98517.72;4961741;28;20242;-60
2023/04/07 05:51:04;;;;;;;11.03;6.83;;;;;;;7.85;97.56;98511.56;4962342;28;20234;-60
2023/04/07 05:53:30;;;;;;;8.67;5.20;;;;;;;8.13;96.89;98509.09;4961872;28;20238;-60
2023/04/07 05:55:58;;;;;;;6.50;4.83;;;;;;;8.38;95.91;98507.72;4965736;28;20800;-60
2023/04/07 05:58:40;;;;;;;6.50;4.37;;;;;;;8.51;93.70;98514.41;4963860;28;20283;-59
2023/04/07 06:01:09;;;;;;;7.13;4.60;;;;;;;8.51;90.00;98509.19;4967933;28;20250;-60
2023/04/07 06:03:35;;;;;;;7.80;5.13;;;;;;;8.28;88.20;98512.09;4962422;28;20280;-60
2023/04/07 06:06:11;;;;;;;8.73;4.83;;;;;;;8.17;88.64;98510.47;4967040;28;20236;-60
2023/04/07 06:08:38;;;;;;;6.40;4.70;;;;;;;8.07;88.06;98512.25;4962245;28;20242;-62
2023/04/07 06:11:05;;;;;;;31.57;14.37;;;;;;;8.12;88.31;98512.66;4969047;28;20227;-61
2023/04/07 06:13:33;;;;;;;12.03;7.33;;;;;;;8.17;88.41;98512.25;4965815;28;20227;-61
2023/04/07 06:16:01;;;;;;;15.03;6.90;;;;;;;8.08;83.91;98514.72;4970755;28;20600;-62
2023/04/07 06:18:28;;;;;;;17.57;7.20;;;;;;;8.06;83.54;98511.44;4962545;28;20237;-62
2023/04/07 06:20:55;;;;;;;16.30;8.10;;;;;;;8.04;83.99;98512.50;4967340;28;20227;-62
2023/04/07 06:23:21;;;;;;;10.33;5.10;;;;;;;8.05;85.10;98515.00;4963687;28;20232;-62
2023/04/07 06:25:50;;;;;;;20.77;8.27;;;;;;;8.07;85.01;98517.44;4983131;28;20247;-61
2023/04/07 06:28:17;;;;;;;9.37;5.40;;;;;;;8.09;86.37;98518.97;4960572;28;20231;-62
2023/04/07 06:30:44;;;;;;;10.43;5.17;;;;;;;8.10;86.61;98512.81;4966620;28;20231;-62
2023/04/07 06:33:14;;;;;;;8.43;4.70;;;;;;;8.19;86.93;98512.94;4966682;28;20311;-62
2023/04/07 06:35:41;;;;;;;8.07;4.63;;;;;;;8.23;85.79;98509.91;4965901;28;20256;-61
2023/04/07 06:38:10;;;;;;;6.03;4.07;;;;;;;8.40;85.65;98504.97;4984279;28;20244;-62
2023/04/07 06:40:36;;;;;;;5.50;4.00;;;;;;;8.53;85.31;98508.09;4969285;28;20239;-61
2023/04/07 06:43:03;;;;;;;6.30;3.93;;;;;;;8.70;87.10;98509.16;4984283;28;20244;-62
2023/04/07 06:45:43;;;;;;;7.30;4.93;;;;;;;8.83;87.80;98513.22;4980598;28;20233;-61
2023/04/07 06:48:10;;;;;;;6.80;4.30;;;;;;;8.89;85.41;98515.25;4984649;28;20721;-61
2023/04/07 06:50:38;;;;;;;6.77;4.67;;;;;;;9.00;86.62;98504.66;4981830;28;20252;-61
2023/04/07 06:53:05;;;;;;;8.73;5.85;;;;;;;8.99;85.63;98510.84;4983772;28;20453;-60
2023/04/07 06:55:32;;;;;;;8.03;5.33;;;;;;;9.10;86.38;98506.41;4982115;28;20251;-60
2023/04/07 06:57:58;;;;;;;6.73;5.07;;;;;;;9.18;86.81;98514.31;4984157;28;20224;-62
2023/04/07 07:00:27;;;;;;;7.63;4.47;;;;;;;9.32;87.34;98510.41;4983002;28;20244;-60
2023/04/07 07:02:54;;;;;;;7.47;4.70;;;;;;;9.40;89.18;98522.72;4987917;28;20612;-61
2023/04/07 07:05:22;;;;;;;7.63;4.43;;;;;;;9.29;86.15;98521.09;4985344;28;20240;-62
2023/04/07 07:07:50;;;;;;;4.93;3.73;;;;;;;9.46;83.85;98519.53;4988195;28;20337;-61
2023/04/07 07:10:17;;;;;;;5.83;3.93;;;;;;;9.46;83.58;98529.94;4985384;28;20314;-61
2023/04/07 07:12:43;;;;;;;6.60;4.47;;;;;;;9.35;82.54;98525.75;4986320;28;20244;-61
2023/04/07 07:15:10;;;;;;;6.40;4.17;;;;;;;9.34;80.08;98529.31;4987322;28;20631;-60
2023/04/07 07:17:37;;;;;;;6.13;4.57;;;;;;;9.19;81.33;98525.53;4984289;28;20256;-60
2023/04/07 07:20:05;;;;;;;5.73;4.10;;;;;;;9.24;81.87;98531.13;4986888;28;20228;-62
2023/04/07 07:22:31;;;;;;;20.03;11.60;;;;;;;9.26;82.07;98529.22;4983598;28;20261;-62
2023/04/07 07:24:59;;;;;;;15.33;9.03;;;;;;;9.30;83.18;98535.78;4986373;28;20244;-62
2023/04/07 07:27:26;;;;;;;15.23;7.70;;;;;;;9.37;83.08;98538.63;4984764;28;20711;-62
2023/04/07 07:29:53;;;;;;;11.03;7.13;;;;;;;9.41;80.75;98538.19;4985835;28;20243;-62
2023/04/07 07:32:19;;;;;;;12.67;6.77;;;;;;;9.57;81.57;98541.94;4983829;28;20224;-62
2023/04/07 07:34:46;;;;;;;8.03;5.40;;;;;;;9.66;78.12;98540.22;4984744;28;20242;-61
2023/04/07 07:37:12;;;;;;;7.53;5.17;;;;;;;9.88;78.50;98545.03;4986346;28;20253;-62
2023/04/07 07:39:39;;;;;;;5.87;4.63;;;;;;;9.81;75.04;98551.00;4984213;28;20255;-61
2023/04/07 07:42:07;;;;;;;7.43;4.90;;;;;;;9.99;73.74;98548.38;4986671;28;20290;-62
2023/04/07 07:44:34;;;;;;;10.20;5.37;;;;;;;9.82;71.83;98558.66;4982574;28;20227;-62
2023/04/07 07:47:01;;;;;;;7.07;5.10;;;;;;;9.69;72.59;98558.19;4986212;28;20685;-62
2023/04/07 07:49:27;;;;;;;6.97;4.93;;;;;;;9.68;71.43;98564.34;4983996;28;20687;-61
2023/04/07 07:51:54;;;;;;;9.60;5.90;;;;;;;9.39;73.22;98560.97;4987038;28;20237;-61
2023/04/07 07:54:21;;;;;;;8.23;5.70;;;;;;;9.30;74.89;98567.88;4983439;28;20290;-61
2023/04/07 07:56:47;;;;;;;7.37;4.60;;;;;;;9.19;75.00;98562.00;4986395;28;20247;-61
2023/04/07 07:59:15;;;;;;;9.60;5.77;;;;;;;9.12;77.76;98561.78;4986633;28;20232;-62
2023/04/07 08:01:42;;;;;;;11.87;7.63;;;;;;;9.07;78.28;98561.38;4983178;28;20243;-62
2023/04/07 08:04:09;;;;;;;11.47;6.80;;;;;;;9.00;78.49;98564.53;4984971;28;20813;-62
2023/04/07 08:06:36;;;;;;;9.30;6.60;;;;;;;8.99;78.65;98562.91;4983430;28;20788;-61
2023/04/07 08:09:03;;;;;;;10.23;5.63;;;;;;;8.78;80.89;98562.28;4986376;28;20699;-62
2023/04/07 08:11:29;;;;;;;11.23;7.60;;;;;;;8.77;81.70;98568.44;4981250;28;20259;-61
2023/04/07 08:13:56;;;;;;;9.07;6.03;;;;;;;8.74;82.31;98574.75;4985665;28;20246;-61
2023/04/07 08:16:25;;;;;;;8.57;5.70;;;;;;;8.67;84.05;98571.88;4983267;28;20627;-62
2023/04/07 08:18:52;;;;;;;9.30;6.00;;;;;;;8.62;85.69;98581.88;4986119;28;20790;-62
2023/04/07 08:21:19;;;;;;;8.53;6.50;;;;;;;8.62;86.40;98575.88;4982394;28;20236;-62
2023/04/07 08:23:45;;;;;;;8.13;5.87;;;;;;;8.58;89.36;98577.91;4985179;28;20331;-62
2023/04/07 08:26:12;;;;;;;12.97;6.43;;;;;;;8.51;89.60;98584.63;4984639;28;20307;-61
2023/04/07 08:28:39;;;;;;;10.30;6.63;;;;;;;8.48;89.91;98584.91;4983257;28;20595;-62
2023/04/07 08:31:05;;;;;;;10.93;6.63;;;;;;;8.47;91.36;98596.28;4985917;28;20303;-62
2023/04/07 08:33:34;;;;;;;11.97;7.80;;;;;;;8.55;91.00;98599.00;4981892;28;20243;-62
2023/04/07 08:36:00;;;;;;;9.80;6.77;;;;;;;8.55;91.67;98594.66;4983087;28;20233;-61
2023/04/07 08:38:27;;;;;;;11.07;7.80;;;;;;;8.59;91.34;98599.56;4982437;28;20238;-62
2023/04/07 08:41:00;;;;;;;12.40;7.90;;;;;;;8.57;91.55;98603.13;4983533;28;20224;-62
2023/04/07 08:43:28;;;;;;;12.70;7.73;;;;;;;8.68;92.14;98609.97;4982147;28;20233;-62
2023/04/07 08:45:57;;;;;;;11.33;7.20;;;;;;;8.70;92.50;98602.03;4983877;28;20236;-61
2023/04/07 08:48:26;;;;;;;9.87;7.33;;;;;;;8.73;91.04;98612.16;4982183;28;20223;-62
2023/04/07 08:50:54;;;;;;;13.17;8.13;;;;;;;8.71;92.30;98607.06;4985595;28;20715;-61
2023/04/07 08:53:26;;;;;;;16.53;8.37;;;;;;;8.80;91.67;98612.41;4983815;28;20228;-62
2023/04/07 08:55:55;;;;;;;12.07;7.73;;;;;;;8.89;92.13;98611.56;4984948;28;20335;-61
2023/04/07 08:58:22;;;;;;;15.80;7.83;;;;;;;8.98;91.63;98618.53;4982706;28;20226;-62
2023/04/07 09:00:49;;;;;;;12.47;7.73;;;;;;;9.06;90.69;98617.00;4984950;28;20237;-61
2023/04/07 09:03:17;;;;;;;12.30;7.63;;;;;;;9.09;91.39;98620.16;4985491;28;20696;-61
2023/04/07 09:05:45;;;;;;;13.80;7.47;;;;;;;9.15;89.86;98619.59;4983208;28;20628;-62
2023/04/07 09:08:13;;;;;;;12.00;8.00;;;;;;;8.98;90.62;98621.16;4984514;28;20323;-61
2023/04/07 09:10:40;;;;;;;14.57;8.80;;;;;;;9.17;90.15;98622.06;4982686;28;20243;-61
2023/04/07 09:13:06;;;;;;;16.33;8.80;;;;;;;9.32;90.21;98622.41;4983368;28;20218;-62
2023/04/07 09:15:33;;;;;;;11.80;8.27;;;;;;;9.47;88.94;98632.38;4981195;28;20690;-61
2023/04/07 09:18:00;;;;;;;12.67;7.60;;;;;;;9.73;87.44;98624.69;4984777;28;20232;-62
2023/04/07 09:20:26;;;;;;;11.40;7.70;;;;;;;9.88;87.72;98625.03;4981482;28;20232;-61
2023/04/07 09:22:53;;;;;;;13.60;7.63;;;;;;;9.97;86.77;98625.94;4968062;28;20239;-62
2023/04/07 09:25:25;;;;;;;13.43;8.47;;;;;;;10.01;84.50;98625.50;4982571;28;20232;-62
2023/04/07 09:27:59;;;;;;;12.73;8.40;;;;;;;10.40;84.07;98627.03;4981735;28;20236;-62
2023/04/07 09:30:26;;;;;;;11.80;7.53;;;;;;;10.90;82.75;98633.47;4981387;28;20233;-61
2023/04/07 09:32:53;;;;;;;14.33;7.60;;;;;;;11.16;81.57;98630.00;4983543;28;20299;-61
2023/04/07 09:35:22;;;;;;;13.90;7.93;;;;;;;11.32;77.94;98634.53;4981864;28;20224;-61
2023/04/07 09:38:03;;;;;;;11.80;7.53;;;;;;;11.55;76.48;98639.22;4982608;28;20685;-61
2023/04/07 09:40:31;;;;;;;10.60;7.10;;;;;;;11.91;75.94;98636.38;4981452;28;20592;-61
2023/04/07 09:42:58;;;;;;;11.20;6.90;;;;;;;12.12;74.62;98637.78;4984136;28;20653;-61
2023/04/07 09:45:26;;;;;;;11.93;7.47;;;;;;;12.31;70.54;98638.47;4981014;28;20328;-62
2023/04/07 09:47:54;;;;;;;34.97;19.00;;;;;;;12.66;71.94;98633.91;4983478;28;20285;-62
2023/04/07 09:50:34;;;;;;;12.10;7.33;;;;;;;12.49;69.72;98639.16;4978519;28;20226;-62
2023/04/07 09:53:03;;;;;;;10.13;7.00;;;;;;;12.64;69.21;98634.06;4973254;28;20230;-62
2023/04/07 09:55:32;;;;;;;10.07;6.90;;;;;;;13.19;69.23;98633.50;4978594;28;20251;-61
2023/04/07 09:58:00;;;;;;;9.33;6.23;;;;;;;13.21;67.69;98632.38;5001565;22;20708;-62
2023/04/07 10:00:26;;;;;;;9.93;6.20;;;;;;;13.29;68.25;98629.69;5025960;28;20220;-61
2023/04/07 10:02:53;;;;;;;10.77;7.07;;;;;;;13.10;68.77;98628.28;5012640;28;20231;-61
2023/04/07 10:05:21;;;;;;;9.37;6.50;;;;;;;12.77;68.56;98627.53;5018258;28;20222;-62
2023/04/07 10:07:48;;;;;;;10.53;6.43;;;;;;;12.59;67.07;98625.09;5021133;28;20683;-62
2023/04/07 10:10:14;;;;;;;10.20;5.90;;;;;;;12.42;69.25;98627.69;5021268;28;20253;-61
2023/04/07 10:12:43;;;;;;;9.33;6.60;;;;;;;12.18;71.58;98624.06;4996509;28;20243;-62
2023/04/07 10:15:14;;;;;;;14.70;7.33;;;;;;;11.74;72.89;98632.06;5018007;28;20227;-61
2023/04/07 10:17:45;;;;;;;11.77;7.70;;;;;;;11.94;72.43;98622.19;5017501;28;20241;-61
2023/04/07 10:20:13;;;;;;;10.97;7.10;;;;;;;12.27;70.38;98624.88;5018458;28;20719;-61
2023/04/07 10:22:42;;;;;;;9.17;6.17;;;;;;;12.49;67.51;98631.28;5017935;28;20691;-63
2023/04/07 10:25:12;;;;;;;11.23;6.53;;;;;;;12.56;68.22;98628.81;5020630;28;20706;-60
2023/04/07 10:27:49;;;;;;;7.80;5.90;;;;;;;12.63;68.60;98627.19;5019271;28;20567;-62
2023/04/07 10:30:19;;;;;;;9.63;6.17;;;;;;;12.69;66.77;98625.75;5021676;28;20227;-62
2023/04/07 10:32:47;;;;;;;9.23;6.67;;;;;;;12.40;68.06;98624.41;5018452;28;20233;-61
2023/04/07 10:35:14;;;;;;;10.73;7.20;;;;;;;12.42;68.01;98627.69;5024986;28;20237;-62
2023/04/07 10:37:41;;;;;;;13.00;7.23;;;;;;;12.27;69.86;98632.72;5021517;28;20222;-61
2023/04/07 10:40:30;;;;;;;12.83;7.60;;;;;;;11.83;71.94;98633.75;5005093;28;20216;-61
2023/04/07 10:42:59;;;;;;;13.73;7.30;;;;;;;12.49;73.12;98633.06;5021125;28;20228;-61
2023/04/07 10:46:02;;;;;;;14.90;7.80;;;;;;;12.35;70.04;98624.88;5021984;28;20230;-61
2023/04/07 10:48:31;;;;;;;15.40;7.83;;;;;;;12.69;68.66;98630.97;5022115;28;20322;-62
2023/04/07 10:51:28;;;;;;;18.47;7.43;;;;;;;12.44;68.21;98633.59;5025586;28;20236;-62
2023/04/07 10:54:25;;;;;;;11.90;8.38;;;;;;;12.62;66.86;98632.59;5019542;28;20449;-61
2023/04/07 10:57:12;;;;;;;8.47;6.20;;;;;;;12.86;70.66;98634.38;5022509;28;20319;-62
2023/04/07 10:59:45;;;;;;;10.93;6.30;;;;;;;13.01;68.72;98636.34;5021289;28;20234;-62
2023/04/07 11:02:32;;;;;;;9.43;6.47;;;;;;;12.66;68.09;98637.34;5025909;28;20221;-62
2023/04/07 11:04:59;;;;;;;12.70;8.07;;;;;;;12.97;67.71;98630.59;5018839;28;20267;-62
2023/04/07 11:07:48;;;;;;;8.90;6.60;;;;;;;13.65;67.06;98631.09;5021765;28;20247;-62
2023/04/07 11:10:17;;;;;;;7.10;5.83;;;;;;;13.59;63.17;98637.03;5021388;28;20284;-62
2023/04/07 11:12:45;;;;;;;9.07;5.27;;;;;;;13.43;62.32;98635.25;5018942;28;20372;-62
2023/04/07 11:15:20;;;;;;;9.80;6.00;;;;;;;13.27;61.76;98633.50;5023576;28;20217;-62
2023/04/07 11:17:47;;;;;;;10.10;6.77;;;;;;;13.02;63.69;98636.16;5020694;28;20229;-62
2023/04/07 11:20:14;;;;;;;9.97;6.30;;;;;;;12.72;65.27;98629.81;5026210;28;20303;-62
2023/04/07 11:22:40;;;;;;;11.00;7.00;;;;;;;12.57;68.56;98634.91;5022691;28;20323;-62
2023/04/07 11:25:21;;;;;;;11.00;7.30;;;;;;;12.67;68.89;98635.56;5022578;28;20542;-62
2023/04/07 11:27:48;;;;;;;10.67;6.97;;;;;;;12.21;69.73;98639.44;5020828;28;20591;-62
2023/04/07 11:30:16;;;;;;;9.17;6.70;;;;;;;12.59;69.40;98636.34;5013426;28;20234;-60
2023/04/07 11:32:50;;;;;;;13.13;6.97;;;;;;;12.79;68.71;98642.06;5020401;28;20225;-60
2023/04/07 11:35:17;;;;;;;9.27;6.13;;;;;;;12.56;68.65;98641.91;5017048;28;20226;-57
2023/04/07 11:37:43;;;;;;;10.40;6.40;;;;;;;12.62;70.26;98638.66;5015049;28;20224;-58
2023/04/07 11:40:11;;;;;;;11.50;5.60;;;;;;;12.69;67.36;98638.84;5015622;28;20236;-59
2023/04/07 11:42:39;;;;;;;8.30;5.83;;;;;;;12.48;68.89;98641.91;5006180;28;20237;-59
2023/04/07 11:45:16;;;;;;;11.33;6.50;;;;;;;12.52;70.35;98641.44;5017809;28;20303;-58
2023/04/07 11:47:43;;;;;;;7.63;5.83;;;;;;;12.58;70.60;98649.63;5016098;28;20309;-62